createdAt,value
2017-02-24T00:00:09.390Z,65.56
2017-02-24T00:00:50.230Z,65.56
2017-02-24T00:01:30.976Z,65.65
2017-02-24T00:02:11.653Z,65.56
2017-02-24T00:02:52.474Z,66.03
2017-02-24T00:03:33.311Z,65.75
2017-02-24T00:04:14.248Z,65.84
2017-02-24T00:04:55.040Z,65.94
2017-02-24T00:05:35.799Z,65.84
2017-02-24T00:06:16.603Z,65.84
2017-02-24T00:06:57.380Z,65.94
2017-02-24T00:09:13.108Z,65.84
2017-02-24T00:09:53.986Z,65.46
2017-02-24T00:10:34.763Z,66.03
2017-02-24T00:11:15.583Z,65.84
2017-02-24T00:11:56.348Z,66.03
2017-02-24T00:12:37.114Z,65.75
2017-02-24T00:13:17.837Z,65.94
2017-02-24T00:13:58.611Z,65.94
2017-02-24T00:14:39.420Z,65.84
2017-02-24T00:15:20.097Z,65.94
2017-02-24T00:16:00.921Z,65.65
2017-02-24T00:16:41.623Z,65.84
2017-02-24T00:17:22.404Z,65.94
2017-02-24T00:18:03.168Z,65.84
2017-02-24T00:18:43.935Z,65.75
2017-02-24T00:19:24.726Z,65.94
2017-02-24T00:20:05.525Z,65.65
2017-02-24T00:20:46.286Z,65.75
2017-02-24T00:21:27.036Z,65.75
2017-02-24T00:22:07.771Z,65.75
2017-02-24T00:22:48.524Z,65.56
2017-02-24T00:23:29.334Z,66.23
2017-02-24T00:24:10.087Z,65.56
2017-02-24T00:24:50.867Z,65.65
2017-02-24T00:25:31.748Z,65.56
2017-02-24T00:26:12.543Z,65.65
2017-02-24T00:26:53.371Z,66.33
2017-02-24T00:27:34.138Z,66.42
2017-02-24T00:28:14.938Z,65.84
2017-02-24T00:28:55.761Z,66.03
2017-02-24T00:29:36.639Z,66.71
2017-02-24T00:30:17.429Z,66.71
2017-02-24T00:30:58.236Z,66.42
2017-02-24T00:31:39.050Z,66.23
2017-02-24T00:32:19.831Z,66.42
2017-02-24T00:33:00.668Z,66.42
2017-02-24T00:33:41.423Z,66.71
2017-02-24T00:34:22.360Z,66.13
2017-02-24T00:35:03.075Z,66.13
2017-02-24T00:35:43.808Z,66.13
2017-02-24T00:36:24.589Z,66.33
2017-02-24T00:37:05.526Z,66.23
2017-02-24T00:37:46.276Z,66.42
2017-02-24T00:38:27.149Z,66.23
2017-02-24T00:39:07.984Z,66.71
2017-02-24T00:39:48.783Z,65.75
2017-02-24T00:40:29.559Z,66.03
2017-02-24T00:41:10.302Z,66.03
2017-02-24T00:41:51.083Z,65.84
2017-02-24T00:42:31.873Z,66.03
2017-02-24T00:43:12.590Z,65.84
2017-02-24T00:43:53.292Z,66.23
2017-02-24T00:44:34.061Z,65.94
2017-02-24T00:45:14.860Z,65.84
2017-02-24T00:45:55.574Z,66.8
2017-02-24T00:46:36.337Z,66.26
2017-02-24T00:47:17.138Z,66.52
2017-02-24T00:47:57.994Z,66.23
2017-02-24T00:48:38.686Z,65.84
2017-02-24T00:49:19.390Z,66.13
2017-02-24T00:50:00.185Z,66.8
2017-02-24T00:50:41.032Z,66.42
2017-02-24T00:51:21.735Z,66.13
2017-02-24T00:52:02.526Z,66.61
2017-02-24T00:52:58.384Z,66.23
2017-02-24T00:53:39.311Z,66.61
2017-02-24T00:54:20.064Z,65.75
2017-02-24T00:55:00.906Z,65.75
2017-02-24T00:55:41.577Z,66.42
2017-02-24T00:56:22.527Z,66.23
2017-02-24T00:57:03.300Z,65.94
2017-02-24T00:57:44.047Z,66.42
2017-02-24T00:58:24.815Z,66.03
2017-02-24T00:59:05.615Z,65.75
2017-02-24T00:59:46.436Z,66.23
2017-02-24T01:00:27.185Z,66.71
2017-02-24T01:01:08.029Z,66.03
2017-02-24T01:01:48.872Z,65.84
2017-02-24T01:02:29.732Z,65.84
2017-02-24T01:03:10.516Z,65.94
2017-02-24T01:03:51.321Z,66.52
2017-02-24T01:04:32.042Z,66.13
2017-02-24T01:05:12.801Z,65.75
2017-02-24T01:05:53.510Z,65.84
2017-02-24T01:06:34.396Z,65.75
2017-02-24T01:07:15.127Z,66.42
2017-02-24T01:07:55.894Z,65.84
2017-02-24T01:08:43.273Z,65.84
2017-02-24T01:09:24.056Z,65.84
2017-02-24T01:10:04.862Z,66.13
2017-02-24T01:10:45.619Z,66.42
2017-02-24T01:11:26.412Z,66.13
2017-02-24T01:12:07.318Z,66.42
2017-02-24T01:12:48.013Z,66.03
2017-02-24T01:13:28.916Z,65.84
2017-02-24T01:14:09.746Z,66.42
2017-02-24T01:14:50.487Z,66.52
2017-02-24T01:15:31.249Z,66.61
2017-02-24T01:16:12.133Z,66.52
2017-02-24T01:16:52.983Z,66.61
2017-02-24T01:17:33.753Z,66.61
2017-02-24T01:18:14.682Z,66.52
2017-02-24T01:18:55.446Z,66.42
2017-02-24T01:19:36.236Z,66.42
2017-02-24T01:20:16.999Z,66.9
2017-02-24T01:20:57.790Z,66.61
2017-02-24T01:21:38.583Z,66.61
2017-02-24T01:22:19.413Z,66.42
2017-02-24T01:23:00.227Z,66.42
2017-02-24T01:23:41.064Z,67
2017-02-24T01:24:21.812Z,66.42
2017-02-24T01:25:02.734Z,66.52
2017-02-24T01:25:43.458Z,66.52
2017-02-24T01:26:24.257Z,66.23
2017-02-24T01:27:05.144Z,66.61
2017-02-24T01:27:46.033Z,66.42
2017-02-24T01:28:26.824Z,66.8
2017-02-24T01:29:07.517Z,66.71
2017-02-24T01:29:48.244Z,66.52
2017-02-24T01:30:29.207Z,66.23
2017-02-24T01:31:09.951Z,66.23
2017-02-24T01:31:50.844Z,66.61
2017-02-24T01:32:31.626Z,66.42
2017-02-24T01:33:12.515Z,66.52
2017-02-24T01:33:53.288Z,66.61
2017-02-24T01:34:34.054Z,66.52
2017-02-24T01:35:14.710Z,66.8
2017-02-24T01:35:55.473Z,66.52
2017-02-24T01:36:36.268Z,66.9
2017-02-24T01:37:17.103Z,67.19
2017-02-24T01:37:57.848Z,67.29
2017-02-24T01:38:38.754Z,66.52
2017-02-24T01:39:19.528Z,66.71
2017-02-24T01:40:00.319Z,67
2017-02-24T01:40:41.089Z,66.61
2017-02-24T01:41:21.946Z,67
2017-02-24T01:42:02.712Z,67
2017-02-24T01:42:43.542Z,66.61
2017-02-24T01:43:24.258Z,66.9
2017-02-24T01:44:05.058Z,66.42
2017-02-24T01:44:45.802Z,67
2017-02-24T01:45:26.639Z,66.8
2017-02-24T01:46:07.406Z,66.61
2017-02-24T01:46:48.159Z,66.9
2017-02-24T01:47:28.875Z,67
2017-02-24T01:48:09.769Z,67
2017-02-24T01:48:50.509Z,67
2017-02-24T01:49:31.264Z,67.09
2017-02-24T01:50:12.076Z,67.09
2017-02-24T01:50:52.821Z,67.19
2017-02-24T01:51:33.585Z,67.19
2017-02-24T01:52:14.356Z,67.09
2017-02-24T01:52:55.095Z,66.71
2017-02-24T01:53:35.945Z,66.71
2017-02-24T01:54:16.758Z,67.09
2017-02-24T01:54:57.518Z,67
2017-02-24T01:55:38.296Z,66.71
2017-02-24T01:56:19.076Z,66.9
2017-02-24T01:56:59.872Z,66.9
2017-02-24T01:57:40.588Z,66.71
2017-02-24T01:58:21.405Z,67
2017-02-24T01:59:02.162Z,66.71
2017-02-24T01:59:42.931Z,66.61
2017-02-24T02:00:23.777Z,66.8
2017-02-24T02:01:04.518Z,66.61
2017-02-24T02:01:45.333Z,66.71
2017-02-24T02:02:26.130Z,66.8
2017-02-24T02:03:06.898Z,66.9
2017-02-24T02:03:47.751Z,66.71
2017-02-24T02:04:28.559Z,67.09
2017-02-24T02:05:09.272Z,67
2017-02-24T02:05:50.095Z,66.71
2017-02-24T02:06:30.839Z,66.9
2017-02-24T02:07:11.615Z,66.71
2017-02-24T02:07:52.404Z,66.9
2017-02-24T02:08:47.979Z,66.71
2017-02-24T02:09:28.784Z,66.71
2017-02-24T02:10:09.642Z,66.71
2017-02-24T02:10:50.518Z,66.8
2017-02-24T02:11:31.238Z,66.71
2017-02-24T02:12:11.994Z,67.09
2017-02-24T02:12:52.847Z,66.8
2017-02-24T02:13:33.707Z,67.09
2017-02-24T02:14:14.543Z,66.71
2017-02-24T02:14:55.305Z,66.71
2017-02-24T02:15:36.073Z,67
2017-02-24T02:16:16.821Z,66.71
2017-02-24T02:16:57.546Z,66.8
2017-02-24T02:17:38.309Z,67
2017-02-24T02:18:19.221Z,66.9
2017-02-24T02:18:59.928Z,66.9
2017-02-24T02:19:40.665Z,66.61
2017-02-24T02:20:21.509Z,66.61
2017-02-24T02:21:02.291Z,66.8
2017-02-24T02:21:43.010Z,66.71
2017-02-24T02:22:23.793Z,66.8
2017-02-24T02:23:04.597Z,67
2017-02-24T02:23:45.368Z,67.38
2017-02-24T02:24:26.217Z,66.8
2017-02-24T02:25:07.002Z,66.9
2017-02-24T02:25:47.879Z,66.9
2017-02-24T02:26:28.639Z,66.8
2017-02-24T02:27:09.477Z,67
2017-02-24T02:27:50.240Z,67.38
2017-02-24T02:28:30.970Z,66.9
2017-02-24T02:29:11.761Z,67
2017-02-24T02:29:52.439Z,67
2017-02-24T02:30:33.178Z,67.09
2017-02-24T02:31:13.933Z,66.71
2017-02-24T02:31:54.713Z,66.9
2017-02-24T02:32:35.521Z,66.8
2017-02-24T02:33:16.295Z,67.38
2017-02-24T02:33:57.072Z,67.47
2017-02-24T02:34:37.720Z,67.47
2017-02-24T02:35:18.589Z,67
2017-02-24T02:35:59.373Z,67.38
2017-02-24T02:36:40.112Z,67.29
2017-02-24T02:37:20.890Z,67.29
2017-02-24T02:38:01.727Z,67.19
2017-02-24T02:38:42.539Z,67.09
2017-02-24T02:39:23.393Z,67.19
2017-02-24T02:40:04.268Z,67
2017-02-24T02:40:45.109Z,67.09
2017-02-24T02:41:25.873Z,67.09
2017-02-24T02:42:06.647Z,67.19
2017-02-24T02:42:47.448Z,67
2017-02-24T02:43:28.151Z,67.19
2017-02-24T02:44:09.038Z,67.09
2017-02-24T02:44:49.854Z,67.09
2017-02-24T02:45:30.757Z,67.19
2017-02-24T02:46:11.522Z,67.19
2017-02-24T02:46:52.230Z,67
2017-02-24T02:47:33.198Z,67.19
2017-02-24T02:48:13.937Z,67.09
2017-02-24T02:48:54.726Z,67.09
2017-02-24T02:49:35.564Z,67
2017-02-24T02:50:16.412Z,67.19
2017-02-24T02:50:57.042Z,67.19
2017-02-24T02:51:37.801Z,67.09
2017-02-24T02:52:18.689Z,67.29
2017-02-24T02:52:59.445Z,67.19
2017-02-24T02:53:40.239Z,67.29
2017-02-24T02:54:21.151Z,66.9
2017-02-24T02:55:01.909Z,67.19
2017-02-24T02:55:42.589Z,67.29
2017-02-24T02:56:23.317Z,67.09
2017-02-24T02:57:04.080Z,67.29
2017-02-24T02:57:44.899Z,67.19
2017-02-24T02:58:25.694Z,67.29
2017-02-24T02:59:06.384Z,67.29
2017-02-24T02:59:47.193Z,67.09
2017-02-24T03:00:28.064Z,67.29
2017-02-24T03:01:09.030Z,67.19
2017-02-24T03:01:49.766Z,67.09
2017-02-24T03:02:30.548Z,67.19
2017-02-24T03:03:11.283Z,67.09
2017-02-24T03:03:52.016Z,67.29
2017-02-24T03:04:32.772Z,67.29
2017-02-24T03:05:13.543Z,67.29
2017-02-24T03:05:54.315Z,67.19
2017-02-24T03:06:35.202Z,67.29
2017-02-24T03:07:15.911Z,67.19
2017-02-24T03:07:56.669Z,67
2017-02-24T03:10:12.448Z,67
2017-02-24T03:10:53.298Z,67.76
2017-02-24T03:11:34.035Z,67.76
2017-02-24T03:12:14.817Z,67
2017-02-24T03:12:55.664Z,67
2017-02-24T03:13:36.421Z,67.29
2017-02-24T03:14:17.248Z,66.9
2017-02-24T03:14:58.100Z,67.19
2017-02-24T03:15:38.957Z,67.09
2017-02-24T03:16:19.675Z,67
2017-02-24T03:17:00.468Z,67.09
2017-02-24T03:17:41.474Z,67.29
2017-02-24T03:18:22.275Z,66.9
2017-02-24T03:19:03.108Z,67.09
2017-02-24T03:19:43.836Z,67.57
2017-02-24T03:20:24.616Z,66.9
2017-02-24T03:21:05.562Z,67
2017-02-24T03:21:46.306Z,67.09
2017-02-24T03:22:27.074Z,67.09
2017-02-24T03:23:07.823Z,66.9
2017-02-24T03:23:48.669Z,66.9
2017-02-24T03:24:29.412Z,67
2017-02-24T03:25:10.080Z,66.9
2017-02-24T03:25:50.849Z,67.09
2017-02-24T03:26:31.624Z,67.96
2017-02-24T03:27:12.459Z,67.96
2017-02-24T03:27:53.207Z,67.96
2017-02-24T03:28:33.914Z,67.57
2017-02-24T03:29:14.723Z,67.86
2017-02-24T03:29:55.545Z,67.29
2017-02-24T03:30:36.274Z,67.57
2017-02-24T03:31:17.004Z,67.38
2017-02-24T03:31:57.809Z,67.47
2017-02-24T03:32:38.626Z,67.47
2017-02-24T03:33:19.327Z,67.29
2017-02-24T03:34:00.083Z,67.67
2017-02-24T03:34:40.901Z,67.67
2017-02-24T03:35:21.741Z,67.47
2017-02-24T03:36:02.425Z,67.86
2017-02-24T03:36:43.140Z,67.47
2017-02-24T03:37:23.937Z,67.76
2017-02-24T03:38:04.761Z,67.86
2017-02-24T03:40:05.449Z,67.67
2017-02-24T03:40:46.248Z,67.86
2017-02-24T03:41:27.130Z,67.96
2017-02-24T03:42:07.890Z,67.76
2017-02-24T03:42:48.669Z,67.76
2017-02-24T03:43:29.558Z,67.38
2017-02-24T03:44:10.321Z,67.86
2017-02-24T03:44:51.149Z,67.47
2017-02-24T03:45:31.891Z,67.76
2017-02-24T03:46:12.641Z,67.96
2017-02-24T03:46:53.361Z,67.47
2017-02-24T03:47:34.189Z,67.76
2017-02-24T03:48:14.926Z,67.76
2017-02-24T03:48:55.744Z,67.86
2017-02-24T03:49:36.517Z,67.76
2017-02-24T03:50:17.404Z,67.86
2017-02-24T03:50:58.191Z,67.86
2017-02-24T03:51:39.028Z,67.38
2017-02-24T03:52:19.767Z,67.29
2017-02-24T03:53:00.421Z,67.38
2017-02-24T03:53:41.223Z,67.38
2017-02-24T03:54:21.986Z,67.57
2017-02-24T03:55:02.810Z,67.29
2017-02-24T03:55:43.560Z,67.29
2017-02-24T03:56:24.462Z,67.57
2017-02-24T03:57:06.468Z,67.29
2017-02-24T03:57:54.466Z,67.47
2017-02-24T03:58:37.031Z,67
2017-02-24T03:59:18.189Z,67.38
2017-02-24T03:59:59.004Z,67.09
2017-02-24T04:00:40.880Z,67.47
2017-02-24T04:01:21.967Z,66.9
2017-02-24T04:02:03.753Z,67.09
2017-02-24T04:04:03.967Z,66.9
2017-02-24T04:04:45.171Z,67.29
2017-02-24T04:05:26.628Z,66.9
2017-02-24T04:06:08.144Z,67
2017-02-24T04:06:50.347Z,67.38
2017-02-24T04:07:34.075Z,67.76
2017-02-24T04:08:15.413Z,67.38
2017-02-24T04:08:56.750Z,67.38
2017-02-24T04:09:40.230Z,67.47
2017-02-24T04:10:22.812Z,67.47
2017-02-24T04:11:04.375Z,67.86
2017-02-24T04:11:45.126Z,67.29
2017-02-24T04:12:26.743Z,67.38
2017-02-24T04:13:08.123Z,67.47
2017-02-24T04:13:48.739Z,67.47
2017-02-24T04:14:29.827Z,67.96
2017-02-24T04:15:10.778Z,67.67
2017-02-24T04:15:52.767Z,67.86
2017-02-24T04:16:35.433Z,67.47
2017-02-24T04:17:17.063Z,67.96
2017-02-24T04:17:57.843Z,67.67
2017-02-24T04:18:38.704Z,67.76
2017-02-24T04:19:19.474Z,67.76
2017-02-24T04:20:00.187Z,67.76
2017-02-24T04:20:40.913Z,67.67
2017-02-24T04:21:21.685Z,67.86
2017-02-24T04:22:02.602Z,67.86
2017-02-24T04:22:43.340Z,67.86
2017-02-24T04:23:24.130Z,67.76
2017-02-24T04:24:04.932Z,67.76
2017-02-24T04:24:45.731Z,67.86
2017-02-24T04:25:26.520Z,67.29
2017-02-24T04:26:07.334Z,67.57
2017-02-24T04:26:48.162Z,67.29
2017-02-24T04:27:28.874Z,67.29
2017-02-24T04:28:09.605Z,67.67
2017-02-24T04:28:50.452Z,67.47
2017-02-24T04:29:31.154Z,67.47
2017-02-24T04:30:11.889Z,67.57
2017-02-24T04:30:52.751Z,67.67
2017-02-24T04:31:33.586Z,67.57
2017-02-24T04:32:14.385Z,67.67
2017-02-24T04:33:02.064Z,67.47
2017-02-24T04:33:42.885Z,67.76
2017-02-24T04:34:23.763Z,67.47
2017-02-24T04:35:04.476Z,67.76
2017-02-24T04:35:45.295Z,67.76
2017-02-24T04:36:26.073Z,67.76
2017-02-24T04:37:06.808Z,67.86
2017-02-24T04:37:47.550Z,67.86
2017-02-24T04:38:29.030Z,67.47
2017-02-24T04:39:09.909Z,67.47
2017-02-24T04:39:50.646Z,67.67
2017-02-24T04:40:31.510Z,67.96
2017-02-24T04:41:12.332Z,67.96
2017-02-24T04:41:53.118Z,68.05
2017-02-24T04:42:33.957Z,67.76
2017-02-24T04:43:14.675Z,67.76
2017-02-24T04:43:55.447Z,67.76
2017-02-24T04:44:36.242Z,67.76
2017-02-24T04:45:17.519Z,67.67
2017-02-24T04:45:58.353Z,67.67
2017-02-24T04:46:39.784Z,67.96
2017-02-24T04:47:21.500Z,67.96
2017-02-24T04:48:02.233Z,67.76
2017-02-24T04:48:44.006Z,67.86
2017-02-24T04:49:25.516Z,67.86
2017-02-24T04:50:06.269Z,67.96
2017-02-24T04:50:47.821Z,67.86
2017-02-24T04:51:29.529Z,67.76
2017-02-24T04:52:10.283Z,67.38
2017-02-24T04:52:51.834Z,67.19
2017-02-24T04:53:33.516Z,67.29
2017-02-24T04:54:14.275Z,67.86
2017-02-24T04:54:55.851Z,67.29
2017-02-24T04:55:37.561Z,67.47
2017-02-24T04:56:18.383Z,67.76
2017-02-24T04:56:59.845Z,67.86
2017-02-24T04:57:41.548Z,67.67
2017-02-24T04:58:22.266Z,67.29
2017-02-24T04:59:03.929Z,67.29
2017-02-24T04:59:45.594Z,67.38
2017-02-24T05:00:26.359Z,67.57
2017-02-24T05:01:07.899Z,67.29
2017-02-24T05:01:49.525Z,67.38
2017-02-24T05:02:30.360Z,67.76
2017-02-24T05:03:11.847Z,67.67
2017-02-24T05:03:53.573Z,67.47
2017-02-24T05:04:34.349Z,67.67
2017-02-24T05:05:15.856Z,67.76
2017-02-24T05:05:57.539Z,67.67
2017-02-24T05:06:38.311Z,67.86
2017-02-24T05:07:19.811Z,67.76
2017-02-24T05:08:01.561Z,67.96
2017-02-24T05:08:42.305Z,67.86
2017-02-24T05:09:37.808Z,67.67
2017-02-24T05:10:18.507Z,67.86
2017-02-24T05:10:59.333Z,67.86
2017-02-24T05:11:40.047Z,67.47
2017-02-24T05:12:20.763Z,68.05
2017-02-24T05:13:01.598Z,67.86
2017-02-24T05:13:42.368Z,67.96
2017-02-24T05:14:23.121Z,67.96
2017-02-24T05:15:03.961Z,67.47
2017-02-24T05:15:44.770Z,67.76
2017-02-24T05:16:25.601Z,67.67
2017-02-24T05:17:06.347Z,67.86
2017-02-24T05:17:47.255Z,67.76
2017-02-24T05:18:27.980Z,67.76
2017-02-24T05:19:08.741Z,67.76
2017-02-24T05:19:49.531Z,67.47
2017-02-24T05:20:30.284Z,67.76
2017-02-24T05:21:11.165Z,67.47
2017-02-24T05:23:07.578Z,68.05
2017-02-24T05:23:48.328Z,68.05
2017-02-24T05:24:29.100Z,67.76
2017-02-24T05:25:09.859Z,67.76
2017-02-24T05:25:50.739Z,67.67
2017-02-24T05:26:31.558Z,67.67
2017-02-24T05:27:12.555Z,67.76
2017-02-24T05:27:53.423Z,68.15
2017-02-24T05:28:34.126Z,67.96
2017-02-24T05:29:14.938Z,67.76
2017-02-24T05:29:55.713Z,67.67
2017-02-24T05:30:36.508Z,67.86
2017-02-24T05:31:17.295Z,67.76
2017-02-24T05:31:58.013Z,67.67
2017-02-24T05:32:38.758Z,67.96
2017-02-24T05:33:19.582Z,67.76
2017-02-24T05:34:00.270Z,67.76
2017-02-24T05:34:41.049Z,67.96
2017-02-24T05:35:21.920Z,67.76
2017-02-24T05:36:02.691Z,67.67
2017-02-24T05:36:43.540Z,67.67
2017-02-24T05:37:24.426Z,67.67
2017-02-24T05:38:05.134Z,68.15
2017-02-24T05:38:45.887Z,68.05
2017-02-24T05:39:26.691Z,67.76
2017-02-24T05:40:07.575Z,67.96
2017-02-24T05:40:48.366Z,67.67
2017-02-24T05:41:29.117Z,67.96
2017-02-24T05:42:09.886Z,67.76
2017-02-24T05:42:50.686Z,67.57
2017-02-24T05:43:31.501Z,67.67
2017-02-24T05:44:12.270Z,67.76
2017-02-24T05:44:53.002Z,67.86
2017-02-24T05:45:33.744Z,67.96
2017-02-24T05:46:14.637Z,67.96
2017-02-24T05:46:55.337Z,67.86
2017-02-24T05:47:36.098Z,68.05
2017-02-24T05:48:16.893Z,68.15
2017-02-24T05:48:57.693Z,67.86
2017-02-24T05:49:38.592Z,68.05
2017-02-24T05:50:19.271Z,67.96
2017-02-24T05:51:00.135Z,67.76
2017-02-24T05:51:40.890Z,67.86
2017-02-24T05:52:21.737Z,67.86
2017-02-24T05:53:02.400Z,67.86
2017-02-24T05:53:43.103Z,68.05
2017-02-24T05:54:24.123Z,67.96
2017-02-24T05:55:04.942Z,67.96
2017-02-24T05:55:45.677Z,67.86
2017-02-24T05:56:26.393Z,67.96
2017-02-24T05:57:07.138Z,67.86
2017-02-24T05:57:47.985Z,67.86
2017-02-24T05:58:28.719Z,67.96
2017-02-24T05:59:09.522Z,67.86
2017-02-24T05:59:50.212Z,68.05
2017-02-24T06:00:30.991Z,67.96
2017-02-24T06:01:11.831Z,68.34
2017-02-24T06:01:52.670Z,68.53
2017-02-24T06:02:33.468Z,68.15
2017-02-24T06:03:14.345Z,68.63
2017-02-24T06:03:55.099Z,67.86
2017-02-24T06:04:35.806Z,68.05
2017-02-24T06:05:16.586Z,68.44
2017-02-24T06:05:57.394Z,68.63
2017-02-24T06:06:38.185Z,68.34
2017-02-24T06:07:19.003Z,68.73
2017-02-24T06:07:59.861Z,68.24
2017-02-24T06:08:40.601Z,68.34
2017-02-24T06:09:21.363Z,68.24
2017-02-24T06:10:02.239Z,68.24
2017-02-24T06:10:43.015Z,68.34
2017-02-24T06:11:23.821Z,68.24
2017-02-24T06:12:04.582Z,68.15
2017-02-24T06:12:45.317Z,67.96
2017-02-24T06:13:26.103Z,68.44
2017-02-24T06:14:06.900Z,68.24
2017-02-24T06:14:47.654Z,68.63
2017-02-24T06:15:28.482Z,68.34
2017-02-24T06:16:09.224Z,68.24
2017-02-24T06:16:50.152Z,68.44
2017-02-24T06:17:30.972Z,68.34
2017-02-24T06:18:11.690Z,68.44
2017-02-24T06:18:52.374Z,68.53
2017-02-24T06:19:33.139Z,68.15
2017-02-24T06:20:13.908Z,68.53
2017-02-24T06:20:54.739Z,68.24
2017-02-24T06:21:35.508Z,68.63
2017-02-24T06:22:16.352Z,67.96
2017-02-24T06:22:57.085Z,68.15
2017-02-24T06:23:37.824Z,68.44
2017-02-24T06:24:18.638Z,68.05
2017-02-24T06:24:59.357Z,68.24
2017-02-24T06:25:40.188Z,68.44
2017-02-24T06:26:21.296Z,68.24
2017-02-24T06:27:02.411Z,68.63
2017-02-24T06:27:43.299Z,68.44
2017-02-24T06:28:24.048Z,68.34
2017-02-24T06:29:04.818Z,68.53
2017-02-24T06:29:45.657Z,68.44
2017-02-24T06:30:26.502Z,68.15
2017-02-24T06:31:07.360Z,68.44
2017-02-24T06:31:48.172Z,68.34
2017-02-24T06:32:28.949Z,68.34
2017-02-24T06:33:09.700Z,68.24
2017-02-24T06:33:50.429Z,68.44
2017-02-24T06:34:31.081Z,67.96
2017-02-24T06:35:11.912Z,67.76
2017-02-24T06:35:52.761Z,67.76
2017-02-24T06:36:33.580Z,67.76
2017-02-24T06:37:14.399Z,67.76
2017-02-24T06:37:55.275Z,67.76
2017-02-24T06:38:35.960Z,67.96
2017-02-24T06:39:16.729Z,68.15
2017-02-24T06:39:57.564Z,67.96
2017-02-24T06:40:38.405Z,68.05
2017-02-24T06:41:19.126Z,67.86
2017-02-24T06:41:59.856Z,67.92
2017-02-24T06:42:40.688Z,68.02
2017-02-24T06:43:21.406Z,68.02
2017-02-24T06:44:02.336Z,68.12
2017-02-24T06:44:43.180Z,68.3
2017-02-24T06:45:23.958Z,68.3
2017-02-24T06:46:04.734Z,68.12
2017-02-24T06:46:45.582Z,68.5
2017-02-24T06:47:26.429Z,67.83
2017-02-24T06:48:07.125Z,67.92
2017-02-24T06:48:47.984Z,68.02
2017-02-24T06:49:28.853Z,68.02
2017-02-24T06:50:09.586Z,67.63
2017-02-24T06:50:50.506Z,67.83
2017-02-24T06:51:31.235Z,68.02
2017-02-24T06:52:11.964Z,67.92
2017-02-24T06:52:52.688Z,68.02
2017-02-24T06:53:33.496Z,67.35
2017-02-24T06:54:14.283Z,67.63
2017-02-24T06:54:55.066Z,67.25
2017-02-24T06:55:35.892Z,67.54
2017-02-24T06:56:16.652Z,66.96
2017-02-24T06:56:57.398Z,66.96
2017-02-24T06:57:38.226Z,67.44
2017-02-24T06:58:19.146Z,67.25
2017-02-24T06:58:59.831Z,66.86
2017-02-24T06:59:40.678Z,66.77
2017-02-24T07:00:21.413Z,66.67
2017-02-24T07:01:02.337Z,67.25
2017-02-24T07:01:43.127Z,66.58
2017-02-24T07:02:23.867Z,66.86
2017-02-24T07:03:04.598Z,66.58
2017-02-24T07:03:45.444Z,66.67
2017-02-24T07:04:26.074Z,66.96
2017-02-24T07:05:06.908Z,66.96
2017-02-24T07:05:47.685Z,67.06
2017-02-24T07:06:28.696Z,66.77
2017-02-24T07:07:09.517Z,66.77
2017-02-24T07:07:50.309Z,66.67
2017-02-24T07:08:31.233Z,66.67
2017-02-24T07:09:12.786Z,66.77
2017-02-24T07:09:53.558Z,66.86
2017-02-24T07:10:34.429Z,66.77
2017-02-24T07:11:15.325Z,66.96
2017-02-24T07:11:56.272Z,67.06
2017-02-24T07:12:37.175Z,66.96
2017-02-24T07:13:18.002Z,66.96
2017-02-24T07:13:58.833Z,66.67
2017-02-24T07:14:39.579Z,66.77
2017-02-24T07:15:20.480Z,66.96
2017-02-24T07:16:01.262Z,66.86
2017-02-24T07:16:42.165Z,66.77
2017-02-24T07:17:22.927Z,66.67
2017-02-24T07:18:03.635Z,66.77
2017-02-24T07:18:44.579Z,67.06
2017-02-24T07:19:25.416Z,67.06
2017-02-24T07:20:06.164Z,66.67
2017-02-24T07:20:46.853Z,66.86
2017-02-24T07:21:27.674Z,66.58
2017-02-24T07:22:08.436Z,66.19
2017-02-24T07:22:49.311Z,66.58
2017-02-24T07:23:29.998Z,66.49
2017-02-24T07:24:10.752Z,66.49
2017-02-24T07:24:51.532Z,66.39
2017-02-24T07:25:32.420Z,66.86
2017-02-24T07:26:13.157Z,66.19
2017-02-24T07:26:53.943Z,66.67
2017-02-24T07:27:34.741Z,66.96
2017-02-24T07:28:15.568Z,66.86
2017-02-24T07:28:56.321Z,66.58
2017-02-24T07:29:37.209Z,66.86
2017-02-24T07:30:17.965Z,66.39
2017-02-24T07:30:58.804Z,66.1
2017-02-24T07:31:39.636Z,66.49
2017-02-24T07:32:20.392Z,66.19
2017-02-24T07:33:01.155Z,66.58
2017-02-24T07:33:41.940Z,66.1
2017-02-24T07:34:22.638Z,66.49
2017-02-24T07:35:03.475Z,66.39
2017-02-24T07:35:44.220Z,66.77
2017-02-24T07:36:25.030Z,66.77
2017-02-24T07:37:05.858Z,66.49
2017-02-24T07:37:46.684Z,66.19
2017-02-24T07:38:27.743Z,66.19
2017-02-24T07:39:08.487Z,66.29
2017-02-24T07:39:49.274Z,66.86
2017-02-24T07:40:29.990Z,66.19
2017-02-24T07:41:10.945Z,66.39
2017-02-24T07:41:51.633Z,66.39
2017-02-24T07:42:32.420Z,66.39
2017-02-24T07:43:13.215Z,66.58
2017-02-24T07:43:53.831Z,66.1
2017-02-24T07:44:34.827Z,66.67
2017-02-24T07:45:15.497Z,66.1
2017-02-24T07:45:56.448Z,66.19
2017-02-24T07:46:37.220Z,66
2017-02-24T07:47:17.914Z,66.39
2017-02-24T07:47:58.800Z,66.19
2017-02-24T07:48:39.659Z,66.67
2017-02-24T07:49:20.441Z,66.1
2017-02-24T07:50:01.290Z,66.29
2017-02-24T07:50:42.061Z,66.19
2017-02-24T07:51:22.996Z,66.29
2017-02-24T07:53:43.960Z,66.1
2017-02-24T07:54:24.837Z,66.19
2017-02-24T07:55:05.721Z,66.67
2017-02-24T07:55:46.492Z,65.91
2017-02-24T07:56:27.296Z,65.81
2017-02-24T07:57:08.042Z,66.29
2017-02-24T07:57:48.821Z,66.1
2017-02-24T07:58:29.481Z,65.52
2017-02-24T07:59:10.324Z,66.03
2017-02-24T07:59:51.161Z,66.23
2017-02-24T08:00:32.005Z,65.56
2017-02-24T08:01:12.731Z,65.84
2017-02-24T08:01:53.610Z,65.56
2017-02-24T08:02:34.391Z,65.72
2017-02-24T08:03:15.157Z,66.23
2017-02-24T08:05:10.410Z,66.1
2017-02-24T08:05:51.070Z,65.62
2017-02-24T08:06:31.874Z,65.56
2017-02-24T08:07:12.650Z,65.75
2017-02-24T08:07:53.372Z,66.1
2017-02-24T08:08:34.205Z,66.29
2017-02-24T08:09:15.130Z,66.1
2017-02-24T08:09:55.991Z,66.29
2017-02-24T08:10:36.768Z,65.62
2017-02-24T08:11:17.593Z,65.72
2017-02-24T08:11:58.377Z,65.72
2017-02-24T08:12:39.214Z,65.62
2017-02-24T08:13:20.008Z,66
2017-02-24T08:14:00.864Z,65.72
2017-02-24T08:14:41.701Z,65.81
2017-02-24T08:15:22.468Z,65.81
2017-02-24T08:16:03.273Z,65.72
2017-02-24T08:18:24.450Z,65.62
2017-02-24T08:19:05.063Z,65.72
2017-02-24T08:19:45.851Z,65.52
2017-02-24T08:20:26.654Z,65.72
2017-02-24T08:21:07.597Z,65.81
2017-02-24T08:21:49.432Z,65.91
2017-02-24T08:22:31.010Z,65.81
2017-02-24T08:23:13.023Z,65.72
2017-02-24T08:23:54.063Z,65.91
2017-02-24T08:24:34.986Z,65.65
2017-02-24T08:25:15.802Z,65.91
2017-02-24T08:25:56.661Z,65.72
2017-02-24T08:26:37.493Z,65.91
2017-02-24T08:27:18.323Z,65.91
2017-02-24T08:27:59.219Z,65.62
2017-02-24T08:28:40.167Z,65.81
2017-02-24T08:29:20.923Z,65.81
2017-02-24T08:30:01.780Z,65.72
2017-02-24T08:30:42.508Z,65.81
2017-02-24T08:31:23.385Z,66
2017-02-24T08:32:04.263Z,65.62
2017-02-24T08:32:45.092Z,65.81
2017-02-24T08:33:25.841Z,65.62
2017-02-24T08:34:06.625Z,65.81
2017-02-24T08:34:47.370Z,65.62
2017-02-24T08:35:28.339Z,65.81
2017-02-24T08:36:09.115Z,65.62
2017-02-24T08:36:49.894Z,65.72
2017-02-24T08:37:30.632Z,65.81
2017-02-24T08:38:11.498Z,65.81
2017-02-24T08:38:52.207Z,65.81
2017-02-24T08:39:32.914Z,65.72
2017-02-24T08:40:13.710Z,65.81
2017-02-24T08:40:54.436Z,66.19
2017-02-24T08:41:35.252Z,66
2017-02-24T08:42:15.957Z,66.1
2017-02-24T08:42:56.709Z,66
2017-02-24T08:43:37.484Z,66
2017-02-24T08:44:18.420Z,65.62
2017-02-24T08:44:59.289Z,66.49
2017-02-24T08:45:39.952Z,67.35
2017-02-24T08:46:20.818Z,67.83
2017-02-24T08:47:01.819Z,68.3
2017-02-24T08:48:57.479Z,69.17
2017-02-24T08:49:38.302Z,68.88
2017-02-24T08:50:18.991Z,68.91
2017-02-24T08:50:59.845Z,68.79
2017-02-24T08:51:40.606Z,68.98
2017-02-24T08:52:21.368Z,68.98
2017-02-24T08:53:02.226Z,68.88
2017-02-24T08:53:43.123Z,69.56
2017-02-24T08:54:23.984Z,68.88
2017-02-24T08:55:04.768Z,69.46
2017-02-24T08:55:45.528Z,69.65
2017-02-24T08:56:26.463Z,69.97
2017-02-24T08:57:07.169Z,70.84
2017-02-24T08:57:48.073Z,70.45
2017-02-24T08:58:28.981Z,70.45
2017-02-24T08:59:09.707Z,70.26
2017-02-24T08:59:50.564Z,70.74
2017-02-24T09:00:31.358Z,70.64
2017-02-24T09:01:12.297Z,70.45
2017-02-24T09:01:52.976Z,70.74
2017-02-24T09:02:33.792Z,70.36
2017-02-24T09:03:14.550Z,70.64
2017-02-24T09:03:55.293Z,70.64